sensor_id;sensor_type;location;lat;lon;timestamp;temperature;humidity
6538;DHT22;3302;52.508;13.454;2022-12-07T00:01:30;2.60;99.90
6538;DHT22;3302;52.508;13.454;2022-12-07T00:03:58;2.60;99.90
6538;DHT22;3302;52.508;13.454;2022-12-07T00:06:30;2.60;99.90
6538;DHT22;3302;52.508;13.454;2022-12-07T00:08:57;2.60;99.90
6538;DHT22;3302;52.508;13.454;2022-12-07T00:11:23;2.60;99.90
6538;DHT22;3302;52.508;13.454;2022-12-07T00:13:54;2.60;99.90
6538;DHT22;3302;52.508;13.454;2022-12-07T00:16:22;2.50;99.90
6538;DHT22;3302;52.508;13.454;2022-12-07T00:18:48;2.50;99.90
6538;DHT22;3302;52.508;13.454;2022-12-07T00:21:20;2.60;99.90
6538;DHT22;3302;52.508;13.454;2022-12-07T00:23:49;2.60;99.90
6538;DHT22;3302;52.508;13.454;2022-12-07T00:26:18;2.50;99.90
6538;DHT22;3302;52.508;13.454;2022-12-07T00:28:48;2.50;99.90
6538;DHT22;3302;52.508;13.454;2022-12-07T00:31:16;2.50;99.90
6538;DHT22;3302;52.508;13.454;2022-12-07T00:33:43;2.40;99.90
6538;DHT22;3302;52.508;13.454;2022-12-07T00:36:11;2.40;99.90
6538;DHT22;3302;52.508;13.454;2022-12-07T00:38:39;2.30;99.90
6538;DHT22;3302;52.508;13.454;2022-12-07T00:41:09;2.50;99.90
6538;DHT22;3302;52.508;13.454;2022-12-07T00:43:35;2.50;99.90
6538;DHT22;3302;52.508;13.454;2022-12-07T00:46:01;2.50;99.90
6538;DHT22;3302;52.508;13.454;2022-12-07T00:48:26;2.50;99.90
6538;DHT22;3302;52.508;13.454;2022-12-07T00:50:52;2.50;99.90
6538;DHT22;3302;52.508;13.454;2022-12-07T00:53:18;2.40;99.90
6538;DHT22;3302;52.508;13.454;2022-12-07T00:55:44;2.40;99.90
6538;DHT22;3302;52.508;13.454;2022-12-07T00:58:10;2.50;99.90
6538;DHT22;3302;52.508;13.454;2022-12-07T01:00:38;2.40;99.90
6538;DHT22;3302;52.508;13.454;2022-12-07T01:03:05;2.30;99.90
6538;DHT22;3302;52.508;13.454;2022-12-07T01:05:31;2.40;99.90
6538;DHT22;3302;52.508;13.454;2022-12-07T01:07:57;2.30;99.90
6538;DHT22;3302;52.508;13.454;2022-12-07T01:10:23;2.30;99.90
6538;DHT22;3302;52.508;13.454;2022-12-07T01:12:49;2.20;99.90
6538;DHT22;3302;52.508;13.454;2022-12-07T01:15:15;2.20;99.90
6538;DHT22;3302;52.508;13.454;2022-12-07T01:17:41;2.20;99.90
6538;DHT22;3302;52.508;13.454;2022-12-07T01:20:07;2.10;99.90
6538;DHT22;3302;52.508;13.454;2022-12-07T01:22:37;2.20;99.90
6538;DHT22;3302;52.508;13.454;2022-12-07T01:25:04;2.20;99.90
6538;DHT22;3302;52.508;13.454;2022-12-07T01:27:31;2.10;99.90
6538;DHT22;3302;52.508;13.454;2022-12-07T01:29:57;2.30;99.90
6538;DHT22;3302;52.508;13.454;2022-12-07T01:32:23;2.20;99.90
6538;DHT22;3302;52.508;13.454;2022-12-07T01:34:49;2.20;99.90
6538;DHT22;3302;52.508;13.454;2022-12-07T01:37:14;2.20;99.90
6538;DHT22;3302;52.508;13.454;2022-12-07T01:39:40;2.20;99.90
6538;DHT22;3302;52.508;13.454;2022-12-07T01:42:11;2.20;99.90
6538;DHT22;3302;52.508;13.454;2022-12-07T01:47:41;2.20;99.90
6538;DHT22;3302;52.508;13.454;2022-12-07T01:50:08;2.20;99.90
6538;DHT22;3302;52.508;13.454;2022-12-07T01:52:35;2.20;99.90
6538;DHT22;3302;52.508;13.454;2022-12-07T01:55:06;2.20;99.90
6538;DHT22;3302;52.508;13.454;2022-12-07T01:57:35;2.20;99.90
6538;DHT22;3302;52.508;13.454;2022-12-07T02:00:05;2.20;99.90
6538;DHT22;3302;52.508;13.454;2022-12-07T02:02:34;2.30;99.90
6538;DHT22;3302;52.508;13.454;2022-12-07T02:05:02;2.30;99.90
6538;DHT22;3302;52.508;13.454;2022-12-07T02:07:29;2.30;99.90
6538;DHT22;3302;52.508;13.454;2022-12-07T02:09:55;2.30;99.90
6538;DHT22;3302;52.508;13.454;2022-12-07T02:12:22;2.30;99.90
6538;DHT22;3302;52.508;13.454;2022-12-07T02:14:49;2.30;99.90
6538;DHT22;3302;52.508;13.454;2022-12-07T02:17:32;2.20;99.90
6538;DHT22;3302;52.508;13.454;2022-12-07T02:20:02;2.20;99.90
6538;DHT22;3302;52.508;13.454;2022-12-07T02:23:00;2.20;99.90
6538;DHT22;3302;52.508;13.454;2022-12-07T02:28:27;2.20;99.90
6538;DHT22;3302;52.508;13.454;2022-12-07T02:30:56;2.20;99.90
6538;DHT22;3302;52.508;13.454;2022-12-07T02:33:37;2.20;99.90
6538;DHT22;3302;52.508;13.454;2022-12-07T02:36:08;2.20;99.90
6538;DHT22;3302;52.508;13.454;2022-12-07T02:38:50;2.10;99.90
6538;DHT22;3302;52.508;13.454;2022-12-07T02:41:48;2.00;99.90
6538;DHT22;3302;52.508;13.454;2022-12-07T02:44:20;2.10;99.90
6538;DHT22;3302;52.508;13.454;2022-12-07T02:46:57;2.10;99.90
6538;DHT22;3302;52.508;13.454;2022-12-07T02:49:26;2.20;99.90
6538;DHT22;3302;52.508;13.454;2022-12-07T02:51:52;2.00;99.90
6538;DHT22;3302;52.508;13.454;2022-12-07T02:54:20;2.00;99.90
6538;DHT22;3302;52.508;13.454;2022-12-07T03:08:02;1.90;99.90
6538;DHT22;3302;52.508;13.454;2022-12-07T03:19:13;1.80;99.90
6538;DHT22;3302;52.508;13.454;2022-12-07T03:21:47;1.80;99.90
6538;DHT22;3302;52.508;13.454;2022-12-07T03:24:19;1.80;99.90
6538;DHT22;3302;52.508;13.454;2022-12-07T03:26:49;1.70;99.90
6538;DHT22;3302;52.508;13.454;2022-12-07T03:29:22;1.80;99.90
6538;DHT22;3302;52.508;13.454;2022-12-07T03:34:47;1.70;99.90
6538;DHT22;3302;52.508;13.454;2022-12-07T03:39:57;1.70;99.90
6538;DHT22;3302;52.508;13.454;2022-12-07T03:42:25;1.70;99.90
6538;DHT22;3302;52.508;13.454;2022-12-07T03:44:51;1.60;99.90
6538;DHT22;3302;52.508;13.454;2022-12-07T03:52:47;1.70;99.90
6538;DHT22;3302;52.508;13.454;2022-12-07T03:55:22;1.70;99.90
6538;DHT22;3302;52.508;13.454;2022-12-07T03:57:53;1.70;99.90
6538;DHT22;3302;52.508;13.454;2022-12-07T04:00:20;1.60;99.90
6538;DHT22;3302;52.508;13.454;2022-12-07T04:02:45;1.60;99.90
6538;DHT22;3302;52.508;13.454;2022-12-07T04:05:12;1.60;99.90
6538;DHT22;3302;52.508;13.454;2022-12-07T04:07:38;1.50;99.90
6538;DHT22;3302;52.508;13.454;2022-12-07T04:10:05;1.50;99.90
6538;DHT22;3302;52.508;13.454;2022-12-07T04:12:31;1.50;99.90
6538;DHT22;3302;52.508;13.454;2022-12-07T04:14:57;1.50;99.90
6538;DHT22;3302;52.508;13.454;2022-12-07T04:17:23;1.50;99.90
6538;DHT22;3302;52.508;13.454;2022-12-07T04:19:48;1.50;99.90
6538;DHT22;3302;52.508;13.454;2022-12-07T04:22:14;1.40;99.90
6538;DHT22;3302;52.508;13.454;2022-12-07T04:24:40;1.40;99.90
6538;DHT22;3302;52.508;13.454;2022-12-07T04:27:06;1.40;99.90
6538;DHT22;3302;52.508;13.454;2022-12-07T04:29:31;1.40;99.90
6538;DHT22;3302;52.508;13.454;2022-12-07T04:31:57;1.40;99.90
6538;DHT22;3302;52.508;13.454;2022-12-07T04:34:23;1.40;99.90
6538;DHT22;3302;52.508;13.454;2022-12-07T04:36:48;1.50;99.90
6538;DHT22;3302;52.508;13.454;2022-12-07T04:41:45;1.40;99.90
6538;DHT22;3302;52.508;13.454;2022-12-07T04:44:13;1.50;99.90
6538;DHT22;3302;52.508;13.454;2022-12-07T04:46:40;1.40;99.90
6538;DHT22;3302;52.508;13.454;2022-12-07T04:49:06;1.50;99.90
6538;DHT22;3302;52.508;13.454;2022-12-07T04:51:32;1.50;99.90
6538;DHT22;3302;52.508;13.454;2022-12-07T04:53:58;1.40;99.90
6538;DHT22;3302;52.508;13.454;2022-12-07T04:56:24;1.50;99.90
6538;DHT22;3302;52.508;13.454;2022-12-07T04:58:52;1.50;99.90
6538;DHT22;3302;52.508;13.454;2022-12-07T05:01:18;1.50;99.90
6538;DHT22;3302;52.508;13.454;2022-12-07T05:03:45;1.50;99.90
6538;DHT22;3302;52.508;13.454;2022-12-07T05:06:12;1.60;99.90
6538;DHT22;3302;52.508;13.454;2022-12-07T05:08:38;1.70;99.90
6538;DHT22;3302;52.508;13.454;2022-12-07T05:11:05;1.70;99.90
6538;DHT22;3302;52.508;13.454;2022-12-07T05:13:31;1.70;99.90
6538;DHT22;3302;52.508;13.454;2022-12-07T05:15:57;1.70;99.90
6538;DHT22;3302;52.508;13.454;2022-12-07T05:18:23;1.60;99.90
6538;DHT22;3302;52.508;13.454;2022-12-07T05:20:50;1.60;99.90
6538;DHT22;3302;52.508;13.454;2022-12-07T05:23:17;1.60;99.90
6538;DHT22;3302;52.508;13.454;2022-12-07T05:25:43;1.70;99.90
6538;DHT22;3302;52.508;13.454;2022-12-07T05:28:09;1.70;99.90
6538;DHT22;3302;52.508;13.454;2022-12-07T05:30:36;1.70;99.90
6538;DHT22;3302;52.508;13.454;2022-12-07T05:33:02;1.80;99.90
6538;DHT22;3302;52.508;13.454;2022-12-07T05:35:29;1.80;99.90
6538;DHT22;3302;52.508;13.454;2022-12-07T05:37:55;1.80;99.90
6538;DHT22;3302;52.508;13.454;2022-12-07T05:40:21;1.80;99.90
6538;DHT22;3302;52.508;13.454;2022-12-07T05:42:47;1.90;99.90
6538;DHT22;3302;52.508;13.454;2022-12-07T05:45:12;1.90;99.90
6538;DHT22;3302;52.508;13.454;2022-12-07T05:47:38;1.90;99.90
6538;DHT22;3302;52.508;13.454;2022-12-07T05:50:06;1.90;99.90
6538;DHT22;3302;52.508;13.454;2022-12-07T05:52:32;2.00;99.90
6538;DHT22;3302;52.508;13.454;2022-12-07T05:54:57;2.00;99.90
6538;DHT22;3302;52.508;13.454;2022-12-07T05:57:23;2.00;99.90
6538;DHT22;3302;52.508;13.454;2022-12-07T05:59:49;2.20;99.90
6538;DHT22;3302;52.508;13.454;2022-12-07T06:02:16;2.10;99.90
6538;DHT22;3302;52.508;13.454;2022-12-07T06:04:46;2.20;99.90
6538;DHT22;3302;52.508;13.454;2022-12-07T06:07:14;2.20;99.90
6538;DHT22;3302;52.508;13.454;2022-12-07T06:09:40;2.30;99.90
6538;DHT22;3302;52.508;13.454;2022-12-07T06:12:08;2.30;99.90
6538;DHT22;3302;52.508;13.454;2022-12-07T06:14:53;2.30;99.90
6538;DHT22;3302;52.508;13.454;2022-12-07T06:17:19;2.40;99.90
6538;DHT22;3302;52.508;13.454;2022-12-07T06:19:45;2.40;99.90
6538;DHT22;3302;52.508;13.454;2022-12-07T06:22:11;2.40;99.90
6538;DHT22;3302;52.508;13.454;2022-12-07T06:24:38;2.40;99.90
6538;DHT22;3302;52.508;13.454;2022-12-07T06:27:04;2.40;99.90
6538;DHT22;3302;52.508;13.454;2022-12-07T06:29:30;2.40;99.90
6538;DHT22;3302;52.508;13.454;2022-12-07T06:31:56;2.40;99.90
6538;DHT22;3302;52.508;13.454;2022-12-07T06:34:23;2.40;99.90
6538;DHT22;3302;52.508;13.454;2022-12-07T06:36:50;2.40;99.90
6538;DHT22;3302;52.508;13.454;2022-12-07T06:39:27;2.40;99.90
6538;DHT22;3302;52.508;13.454;2022-12-07T06:41:54;2.60;99.90
6538;DHT22;3302;52.508;13.454;2022-12-07T06:44:20;2.60;99.90
6538;DHT22;3302;52.508;13.454;2022-12-07T06:46:48;2.60;99.90
6538;DHT22;3302;52.508;13.454;2022-12-07T06:49:14;2.50;99.90
6538;DHT22;3302;52.508;13.454;2022-12-07T06:51:40;2.60;99.90
6538;DHT22;3302;52.508;13.454;2022-12-07T06:54:09;2.60;99.90
6538;DHT22;3302;52.508;13.454;2022-12-07T06:56:35;2.60;99.90
6538;DHT22;3302;52.508;13.454;2022-12-07T06:59:02;2.70;99.90
6538;DHT22;3302;52.508;13.454;2022-12-07T07:01:28;2.70;99.90
6538;DHT22;3302;52.508;13.454;2022-12-07T07:03:54;2.70;99.90
6538;DHT22;3302;52.508;13.454;2022-12-07T07:06:20;2.70;99.90
6538;DHT22;3302;52.508;13.454;2022-12-07T07:08:46;2.70;99.90
6538;DHT22;3302;52.508;13.454;2022-12-07T07:11:12;2.80;99.90
6538;DHT22;3302;52.508;13.454;2022-12-07T07:13:37;2.90;99.90
6538;DHT22;3302;52.508;13.454;2022-12-07T07:16:04;2.90;99.90
6538;DHT22;3302;52.508;13.454;2022-12-07T07:18:30;2.90;99.90
6538;DHT22;3302;52.508;13.454;2022-12-07T07:20:56;2.90;99.90
6538;DHT22;3302;52.508;13.454;2022-12-07T07:23:22;3.00;99.90
6538;DHT22;3302;52.508;13.454;2022-12-07T07:25:47;3.00;99.90
6538;DHT22;3302;52.508;13.454;2022-12-07T07:28:14;3.10;99.90
6538;DHT22;3302;52.508;13.454;2022-12-07T07:30:40;3.10;99.90
6538;DHT22;3302;52.508;13.454;2022-12-07T07:33:06;3.10;99.90
6538;DHT22;3302;52.508;13.454;2022-12-07T07:35:33;3.20;99.90
6538;DHT22;3302;52.508;13.454;2022-12-07T07:38:00;3.20;99.90
6538;DHT22;3302;52.508;13.454;2022-12-07T07:40:26;3.20;99.90
6538;DHT22;3302;52.508;13.454;2022-12-07T07:42:53;3.20;99.90
6538;DHT22;3302;52.508;13.454;2022-12-07T07:45:20;3.20;99.90
6538;DHT22;3302;52.508;13.454;2022-12-07T07:47:47;3.20;99.90
6538;DHT22;3302;52.508;13.454;2022-12-07T07:50:13;3.20;99.90
6538;DHT22;3302;52.508;13.454;2022-12-07T07:52:39;3.30;99.90
6538;DHT22;3302;52.508;13.454;2022-12-07T07:55:05;3.30;99.90
6538;DHT22;3302;52.508;13.454;2022-12-07T07:57:34;3.30;99.90
6538;DHT22;3302;52.508;13.454;2022-12-07T08:00:01;3.30;99.90
6538;DHT22;3302;52.508;13.454;2022-12-07T08:02:28;3.40;99.90
6538;DHT22;3302;52.508;13.454;2022-12-07T08:04:55;3.40;99.90
6538;DHT22;3302;52.508;13.454;2022-12-07T08:07:21;3.40;99.90
6538;DHT22;3302;52.508;13.454;2022-12-07T08:09:46;3.40;99.90
6538;DHT22;3302;52.508;13.454;2022-12-07T08:12:12;3.30;99.90
6538;DHT22;3302;52.508;13.454;2022-12-07T08:14:38;3.30;99.90
6538;DHT22;3302;52.508;13.454;2022-12-07T08:17:04;3.30;99.90
6538;DHT22;3302;52.508;13.454;2022-12-07T08:19:29;3.30;99.90
6538;DHT22;3302;52.508;13.454;2022-12-07T08:21:55;3.40;99.90
6538;DHT22;3302;52.508;13.454;2022-12-07T08:24:22;3.40;99.90
6538;DHT22;3302;52.508;13.454;2022-12-07T08:26:48;3.40;99.90
6538;DHT22;3302;52.508;13.454;2022-12-07T08:29:15;3.40;99.90
6538;DHT22;3302;52.508;13.454;2022-12-07T08:31:41;3.50;99.90
6538;DHT22;3302;52.508;13.454;2022-12-07T08:34:07;3.50;99.90
6538;DHT22;3302;52.508;13.454;2022-12-07T08:36:33;3.50;99.90
6538;DHT22;3302;52.508;13.454;2022-12-07T08:38:58;3.50;99.90
6538;DHT22;3302;52.508;13.454;2022-12-07T08:41:24;3.50;99.90
6538;DHT22;3302;52.508;13.454;2022-12-07T08:43:51;3.50;99.90
6538;DHT22;3302;52.508;13.454;2022-12-07T08:46:25;3.50;99.90
6538;DHT22;3302;52.508;13.454;2022-12-07T08:48:58;3.60;99.90
6538;DHT22;3302;52.508;13.454;2022-12-07T08:51:24;3.50;99.90
6538;DHT22;3302;52.508;13.454;2022-12-07T08:53:51;3.60;99.90
6538;DHT22;3302;52.508;13.454;2022-12-07T08:56:18;3.60;99.90
6538;DHT22;3302;52.508;13.454;2022-12-07T08:58:44;3.60;99.90
6538;DHT22;3302;52.508;13.454;2022-12-07T09:01:10;3.60;99.90
6538;DHT22;3302;52.508;13.454;2022-12-07T09:03:36;3.60;99.90
6538;DHT22;3302;52.508;13.454;2022-12-07T09:06:02;3.60;99.90
6538;DHT22;3302;52.508;13.454;2022-12-07T09:08:33;3.60;99.90
6538;DHT22;3302;52.508;13.454;2022-12-07T09:11:00;3.60;99.90
6538;DHT22;3302;52.508;13.454;2022-12-07T09:13:26;3.50;99.90
6538;DHT22;3302;52.508;13.454;2022-12-07T09:15:52;3.60;99.90
6538;DHT22;3302;52.508;13.454;2022-12-07T09:18:18;3.60;99.90
6538;DHT22;3302;52.508;13.454;2022-12-07T09:20:43;3.60;99.90
6538;DHT22;3302;52.508;13.454;2022-12-07T09:23:09;3.60;99.90
6538;DHT22;3302;52.508;13.454;2022-12-07T09:25:35;3.60;99.90
6538;DHT22;3302;52.508;13.454;2022-12-07T09:28:01;3.50;99.90
6538;DHT22;3302;52.508;13.454;2022-12-07T09:30:27;3.50;99.90
6538;DHT22;3302;52.508;13.454;2022-12-07T09:32:54;3.40;99.90
6538;DHT22;3302;52.508;13.454;2022-12-07T09:35:20;3.40;99.90
6538;DHT22;3302;52.508;13.454;2022-12-07T09:37:46;3.30;99.90
6538;DHT22;3302;52.508;13.454;2022-12-07T09:40:13;3.30;99.90
6538;DHT22;3302;52.508;13.454;2022-12-07T09:42:43;3.30;99.90
6538;DHT22;3302;52.508;13.454;2022-12-07T09:47:47;3.30;99.90
6538;DHT22;3302;52.508;13.454;2022-12-07T09:50:16;3.30;99.90
6538;DHT22;3302;52.508;13.454;2022-12-07T09:52:45;3.30;99.90
6538;DHT22;3302;52.508;13.454;2022-12-07T09:55:16;3.30;99.90
6538;DHT22;3302;52.508;13.454;2022-12-07T09:57:43;3.20;99.90
6538;DHT22;3302;52.508;13.454;2022-12-07T10:00:16;3.30;99.90
6538;DHT22;3302;52.508;13.454;2022-12-07T10:03:16;3.20;99.90
6538;DHT22;3302;52.508;13.454;2022-12-07T10:05:39;3.30;99.90
6538;DHT22;3302;52.508;13.454;2022-12-07T10:08:08;3.20;99.90
6538;DHT22;3302;52.508;13.454;2022-12-07T10:10:36;3.20;99.90
6538;DHT22;3302;52.508;13.454;2022-12-07T10:13:19;3.20;99.90
6538;DHT22;3302;52.508;13.454;2022-12-07T10:15:49;3.20;99.90
6538;DHT22;3302;52.508;13.454;2022-12-07T10:23:40;3.20;99.90
6538;DHT22;3302;52.508;13.454;2022-12-07T10:26:35;3.10;99.90
6538;DHT22;3302;52.508;13.454;2022-12-07T10:29:29;3.10;99.90
6538;DHT22;3302;52.508;13.454;2022-12-07T10:31:59;3.20;99.90
6538;DHT22;3302;52.508;13.454;2022-12-07T10:34:32;3.20;99.90
6538;DHT22;3302;52.508;13.454;2022-12-07T10:39:46;3.20;99.90
6538;DHT22;3302;52.508;13.454;2022-12-07T10:42:32;3.10;99.90
6538;DHT22;3302;52.508;13.454;2022-12-07T10:45:15;3.20;99.90
6538;DHT22;3302;52.508;13.454;2022-12-07T10:47:47;3.10;99.90
6538;DHT22;3302;52.508;13.454;2022-12-07T10:58:55;3.00;99.90
6538;DHT22;3302;52.508;13.454;2022-12-07T11:01:48;3.10;99.90
6538;DHT22;3302;52.508;13.454;2022-12-07T11:04:42;3.10;99.90
6538;DHT22;3302;52.508;13.454;2022-12-07T11:07:43;3.10;99.90
6538;DHT22;3302;52.508;13.454;2022-12-07T11:19:34;3.30;99.90
6538;DHT22;3302;52.508;13.454;2022-12-07T11:22:06;3.30;99.90
6538;DHT22;3302;52.508;13.454;2022-12-07T11:24:44;3.30;99.90
6538;DHT22;3302;52.508;13.454;2022-12-07T11:27:22;3.40;99.90
6538;DHT22;3302;52.508;13.454;2022-12-07T11:30:10;3.40;99.90
6538;DHT22;3302;52.508;13.454;2022-12-07T11:32:41;3.50;99.90
6538;DHT22;3302;52.508;13.454;2022-12-07T11:35:24;3.50;99.90
6538;DHT22;3302;52.508;13.454;2022-12-07T11:37:57;3.50;99.90
6538;DHT22;3302;52.508;13.454;2022-12-07T11:40:31;3.40;99.90
6538;DHT22;3302;52.508;13.454;2022-12-07T11:43:05;3.40;99.90
6538;DHT22;3302;52.508;13.454;2022-12-07T11:45:37;3.50;99.90
6538;DHT22;3302;52.508;13.454;2022-12-07T11:48:11;3.40;99.90
6538;DHT22;3302;52.508;13.454;2022-12-07T11:50:43;3.50;99.90
6538;DHT22;3302;52.508;13.454;2022-12-07T11:53:46;3.50;99.90
6538;DHT22;3302;52.508;13.454;2022-12-07T11:56:14;3.50;99.90
6538;DHT22;3302;52.508;13.454;2022-12-07T11:59:06;3.60;99.90
6538;DHT22;3302;52.508;13.454;2022-12-07T12:06:40;3.60;99.90
6538;DHT22;3302;52.508;13.454;2022-12-07T12:09:21;3.60;99.90
6538;DHT22;3302;52.508;13.454;2022-12-07T12:19:40;3.60;99.90
6538;DHT22;3302;52.508;13.454;2022-12-07T12:22:12;3.60;99.90
6538;DHT22;3302;52.508;13.454;2022-12-07T12:24:40;3.60;99.90
6538;DHT22;3302;52.508;13.454;2022-12-07T12:27:14;3.70;99.90
6538;DHT22;3302;52.508;13.454;2022-12-07T12:29:41;3.70;99.90
6538;DHT22;3302;52.508;13.454;2022-12-07T12:35:35;3.80;99.90
6538;DHT22;3302;52.508;13.454;2022-12-07T12:40:54;3.80;99.90
6538;DHT22;3302;52.508;13.454;2022-12-07T12:43:50;3.80;99.90
6538;DHT22;3302;52.508;13.454;2022-12-07T12:51:47;3.90;99.90
6538;DHT22;3302;52.508;13.454;2022-12-07T12:59:29;3.90;99.90
6538;DHT22;3302;52.508;13.454;2022-12-07T13:04:34;3.90;99.90
6538;DHT22;3302;52.508;13.454;2022-12-07T13:07:02;3.90;99.90
6538;DHT22;3302;52.508;13.454;2022-12-07T13:09:30;3.90;99.90
6538;DHT22;3302;52.508;13.454;2022-12-07T13:12:13;3.90;99.90
6538;DHT22;3302;52.508;13.454;2022-12-07T13:17:12;4.00;99.90
6538;DHT22;3302;52.508;13.454;2022-12-07T13:19:59;4.00;99.90
6538;DHT22;3302;52.508;13.454;2022-12-07T13:27:46;4.10;99.90
6538;DHT22;3302;52.508;13.454;2022-12-07T13:30:18;4.10;99.90
6538;DHT22;3302;52.508;13.454;2022-12-07T13:32:54;4.10;99.90
6538;DHT22;3302;52.508;13.454;2022-12-07T13:37:53;4.10;99.90
6538;DHT22;3302;52.508;13.454;2022-12-07T13:40:20;4.10;99.90
6538;DHT22;3302;52.508;13.454;2022-12-07T13:42:47;4.10;99.90
6538;DHT22;3302;52.508;13.454;2022-12-07T13:45:25;4.10;99.90
6538;DHT22;3302;52.508;13.454;2022-12-07T13:48:20;4.10;99.90
6538;DHT22;3302;52.508;13.454;2022-12-07T13:50:55;4.10;99.90
6538;DHT22;3302;52.508;13.454;2022-12-07T13:53:21;4.10;99.90
6538;DHT22;3302;52.508;13.454;2022-12-07T13:55:47;4.10;99.90
6538;DHT22;3302;52.508;13.454;2022-12-07T13:58:14;4.10;99.90
6538;DHT22;3302;52.508;13.454;2022-12-07T14:00:40;4.10;99.90
6538;DHT22;3302;52.508;13.454;2022-12-07T14:05:40;4.10;99.90
6538;DHT22;3302;52.508;13.454;2022-12-07T14:08:22;4.20;99.90
6538;DHT22;3302;52.508;13.454;2022-12-07T14:13:34;4.10;99.90
6538;DHT22;3302;52.508;13.454;2022-12-07T14:16:01;4.10;99.90
6538;DHT22;3302;52.508;13.454;2022-12-07T14:18:45;4.10;99.90
6538;DHT22;3302;52.508;13.454;2022-12-07T14:21:15;4.10;99.90
6538;DHT22;3302;52.508;13.454;2022-12-07T14:23:42;4.10;99.90
6538;DHT22;3302;52.508;13.454;2022-12-07T14:26:16;4.10;99.90
6538;DHT22;3302;52.508;13.454;2022-12-07T14:28:44;4.10;99.90
6538;DHT22;3302;52.508;13.454;2022-12-07T14:31:15;4.00;99.90
6538;DHT22;3302;52.508;13.454;2022-12-07T14:33:42;4.10;99.90
6538;DHT22;3302;52.508;13.454;2022-12-07T14:36:13;4.00;99.90
6538;DHT22;3302;52.508;13.454;2022-12-07T14:38:39;4.00;99.90
6538;DHT22;3302;52.508;13.454;2022-12-07T14:41:18;4.00;99.90
6538;DHT22;3302;52.508;13.454;2022-12-07T14:44:11;3.90;99.90
6538;DHT22;3302;52.508;13.454;2022-12-07T14:46:37;4.00;99.90
6538;DHT22;3302;52.508;13.454;2022-12-07T14:49:03;3.90;99.90
6538;DHT22;3302;52.508;13.454;2022-12-07T14:51:29;3.90;99.90
6538;DHT22;3302;52.508;13.454;2022-12-07T14:53:55;3.90;99.90
6538;DHT22;3302;52.508;13.454;2022-12-07T14:56:21;3.80;99.90
6538;DHT22;3302;52.508;13.454;2022-12-07T14:58:46;3.80;99.90
6538;DHT22;3302;52.508;13.454;2022-12-07T15:01:14;3.80;99.90
6538;DHT22;3302;52.508;13.454;2022-12-07T15:03:39;3.80;99.90
6538;DHT22;3302;52.508;13.454;2022-12-07T15:06:06;3.80;99.90
6538;DHT22;3302;52.508;13.454;2022-12-07T15:08:32;3.70;99.90
6538;DHT22;3302;52.508;13.454;2022-12-07T15:10:58;3.70;99.90
6538;DHT22;3302;52.508;13.454;2022-12-07T15:13:24;3.70;99.90
6538;DHT22;3302;52.508;13.454;2022-12-07T15:16:14;3.70;99.90
6538;DHT22;3302;52.508;13.454;2022-12-07T15:18:42;3.60;99.90
6538;DHT22;3302;52.508;13.454;2022-12-07T15:21:13;3.60;99.90
6538;DHT22;3302;52.508;13.454;2022-12-07T15:23:39;3.50;99.90
6538;DHT22;3302;52.508;13.454;2022-12-07T15:26:05;3.60;99.90
6538;DHT22;3302;52.508;13.454;2022-12-07T15:28:31;3.50;99.90
6538;DHT22;3302;52.508;13.454;2022-12-07T15:30:56;3.50;99.90
6538;DHT22;3302;52.508;13.454;2022-12-07T15:33:22;3.50;99.90
6538;DHT22;3302;52.508;13.454;2022-12-07T15:35:48;3.50;99.90
6538;DHT22;3302;52.508;13.454;2022-12-07T15:38:13;3.50;99.90
6538;DHT22;3302;52.508;13.454;2022-12-07T15:40:39;3.50;99.90
6538;DHT22;3302;52.508;13.454;2022-12-07T15:43:05;3.50;99.90
6538;DHT22;3302;52.508;13.454;2022-12-07T15:45:53;3.50;99.90
6538;DHT22;3302;52.508;13.454;2022-12-07T15:48:19;3.50;99.90
6538;DHT22;3302;52.508;13.454;2022-12-07T15:50:45;3.40;99.90
6538;DHT22;3302;52.508;13.454;2022-12-07T15:53:10;3.50;99.90
6538;DHT22;3302;52.508;13.454;2022-12-07T15:55:39;3.40;99.90
6538;DHT22;3302;52.508;13.454;2022-12-07T15:58:05;3.50;99.90
6538;DHT22;3302;52.508;13.454;2022-12-07T16:00:31;3.40;99.90
6538;DHT22;3302;52.508;13.454;2022-12-07T16:02:57;3.40;99.90
6538;DHT22;3302;52.508;13.454;2022-12-07T16:05:23;3.40;99.90
6538;DHT22;3302;52.508;13.454;2022-12-07T16:07:49;3.40;99.90
6538;DHT22;3302;52.508;13.454;2022-12-07T16:10:16;3.50;99.90
6538;DHT22;3302;52.508;13.454;2022-12-07T16:12:42;3.50;99.90
6538;DHT22;3302;52.508;13.454;2022-12-07T16:15:08;3.50;99.90
6538;DHT22;3302;52.508;13.454;2022-12-07T16:17:34;3.40;99.90
6538;DHT22;3302;52.508;13.454;2022-12-07T16:20:00;3.40;99.90
6538;DHT22;3302;52.508;13.454;2022-12-07T16:22:26;3.40;99.90
6538;DHT22;3302;52.508;13.454;2022-12-07T16:24:51;3.40;99.90
6538;DHT22;3302;52.508;13.454;2022-12-07T16:27:17;3.30;99.90
6538;DHT22;3302;52.508;13.454;2022-12-07T16:29:43;3.30;99.90
6538;DHT22;3302;52.508;13.454;2022-12-07T16:32:09;3.30;99.90
6538;DHT22;3302;52.508;13.454;2022-12-07T16:34:35;3.20;99.90
6538;DHT22;3302;52.508;13.454;2022-12-07T16:37:00;3.30;99.90
6538;DHT22;3302;52.508;13.454;2022-12-07T16:39:26;3.20;99.90
6538;DHT22;3302;52.508;13.454;2022-12-07T16:41:52;3.20;99.90
6538;DHT22;3302;52.508;13.454;2022-12-07T16:44:18;3.20;99.90
6538;DHT22;3302;52.508;13.454;2022-12-07T16:46:44;3.20;99.90
6538;DHT22;3302;52.508;13.454;2022-12-07T16:49:13;3.20;99.90
6538;DHT22;3302;52.508;13.454;2022-12-07T16:51:39;3.10;99.90
6538;DHT22;3302;52.508;13.454;2022-12-07T16:54:08;3.10;99.90
6538;DHT22;3302;52.508;13.454;2022-12-07T16:56:34;3.10;99.90
6538;DHT22;3302;52.508;13.454;2022-12-07T16:58:59;3.00;99.90
6538;DHT22;3302;52.508;13.454;2022-12-07T17:01:25;3.00;99.90
6538;DHT22;3302;52.508;13.454;2022-12-07T17:03:53;3.00;99.90
6538;DHT22;3302;52.508;13.454;2022-12-07T17:06:24;3.00;99.90
6538;DHT22;3302;52.508;13.454;2022-12-07T17:08:51;3.00;99.90
6538;DHT22;3302;52.508;13.454;2022-12-07T17:11:20;3.00;99.90
6538;DHT22;3302;52.508;13.454;2022-12-07T17:13:46;2.90;99.90
6538;DHT22;3302;52.508;13.454;2022-12-07T17:16:31;2.90;99.90
6538;DHT22;3302;52.508;13.454;2022-12-07T17:18:58;2.90;99.90
6538;DHT22;3302;52.508;13.454;2022-12-07T17:21:24;2.90;99.90
6538;DHT22;3302;52.508;13.454;2022-12-07T17:23:50;2.80;99.90
6538;DHT22;3302;52.508;13.454;2022-12-07T17:26:18;2.90;99.90
6538;DHT22;3302;52.508;13.454;2022-12-07T17:28:45;2.90;99.90
6538;DHT22;3302;52.508;13.454;2022-12-07T17:31:13;2.90;99.90
6538;DHT22;3302;52.508;13.454;2022-12-07T17:33:39;2.90;99.90
6538;DHT22;3302;52.508;13.454;2022-12-07T17:36:12;2.90;99.90
6538;DHT22;3302;52.508;13.454;2022-12-07T17:38:39;2.80;99.90
6538;DHT22;3302;52.508;13.454;2022-12-07T17:41:09;2.80;99.90
6538;DHT22;3302;52.508;13.454;2022-12-07T17:43:36;2.80;99.90
6538;DHT22;3302;52.508;13.454;2022-12-07T17:46:10;2.70;99.90
6538;DHT22;3302;52.508;13.454;2022-12-07T17:48:36;2.70;99.90
6538;DHT22;3302;52.508;13.454;2022-12-07T17:51:03;2.70;99.90
6538;DHT22;3302;52.508;13.454;2022-12-07T17:53:50;2.70;99.90
6538;DHT22;3302;52.508;13.454;2022-12-07T17:56:16;2.70;99.90
6538;DHT22;3302;52.508;13.454;2022-12-07T17:58:42;2.70;99.90
6538;DHT22;3302;52.508;13.454;2022-12-07T18:01:08;2.60;99.90
6538;DHT22;3302;52.508;13.454;2022-12-07T18:03:35;2.60;99.90
6538;DHT22;3302;52.508;13.454;2022-12-07T18:06:01;2.60;99.90
6538;DHT22;3302;52.508;13.454;2022-12-07T18:08:27;2.60;99.90
6538;DHT22;3302;52.508;13.454;2022-12-07T18:10:59;2.60;99.90